Time;durP1;ratioP1;P1;durP2;ratioP2;P2;SDS_P1;SDS_P2;PMS_P1;PMS_P2;Temp;Humidity;BMP_temperature;BMP_pressure;BME280_temperature;BME280_humidity;BME280_pressure;Samples;Min_cycle;Max_cycle;Signal;HPM_P1;HPM_P2
2023/09/06 00:01:36;;;;;;;1.30;0.20;;;17.90;99.90;;;;;;5117451;27;20482;-67
2023/09/06 00:04:02;;;;;;;0.68;0.30;;;17.90;99.90;;;;;;5115244;27;20430;-66
2023/09/06 00:06:28;;;;;;;0.40;0.10;;;17.90;99.90;;;;;;5135301;27;20073;-66
2023/09/06 00:08:54;;;;;;;0.30;0.10;;;17.80;99.90;;;;;;5134860;27;20300;-67
2023/09/06 00:11:20;;;;;;;0.20;0.10;;;17.80;99.90;;;;;;5116651;27;20586;-66
2023/09/06 00:13:45;;;;;;;0.82;0.30;;;17.70;99.90;;;;;;5133264;27;20039;-66
2023/09/06 00:16:11;;;;;;;0.75;0.10;;;17.70;99.90;;;;;;5135611;27;20127;-66
2023/09/06 00:18:37;;;;;;;0.20;0.10;;;17.60;99.90;;;;;;5135139;27;20536;-66
2023/09/06 00:21:05;;;;;;;0.30;0.15;;;17.60;99.90;;;;;;5116567;27;20045;-66
2023/09/06 00:23:32;;;;;;;0.40;0.10;;;17.60;99.90;;;;;;5111781;27;20043;-66
2023/09/06 00:25:58;;;;;;;0.20;0.10;;;17.50;99.90;;;;;;5112517;27;20027;-66
2023/09/06 00:28:27;;;;;;;0.80;0.10;;;17.50;99.90;;;;;;5132639;27;20387;-66
2023/09/06 00:30:57;;;;;;;0.70;0.30;;;17.40;99.90;;;;;;5110100;27;20467;-66
2023/09/06 00:33:24;;;;;;;0.35;0.13;;;17.40;99.90;;;;;;5129403;27;20043;-66
2023/09/06 00:35:49;;;;;;;0.55;0.20;;;17.30;99.90;;;;;;5132768;27;20092;-66
2023/09/06 00:38:15;;;;;;;0.30;0.10;;;17.30;99.90;;;;;;5128781;27;20039;-67
2023/09/06 00:40:41;;;;;;;0.80;0.20;;;17.20;99.90;;;;;;5131316;27;20035;-66
2023/09/06 00:43:08;;;;;;;0.17;0.08;;;17.20;99.90;;;;;;5131347;27;20053;-66
2023/09/06 00:45:42;;;;;;;0.30;0.10;;;17.20;99.90;;;;;;5114160;27;20055;-66
2023/09/06 00:48:08;;;;;;;0.30;0.10;;;17.10;99.90;;;;;;5126947;27;20085;-67
2023/09/06 00:50:35;;;;;;;0.30;0.10;;;17.10;99.90;;;;;;5131579;27;20042;-65
2023/09/06 00:53:04;;;;;;;0.47;0.15;;;17.00;99.90;;;;;;5130726;27;20088;-66
2023/09/06 00:55:30;;;;;;;0.30;0.10;;;17.00;99.90;;;;;;5130353;27;20493;-66
2023/09/06 00:57:56;;;;;;;0.30;0.20;;;17.00;99.90;;;;;;5130027;27;20042;-66
2023/09/06 01:00:25;;;;;;;0.10;0.10;;;17.00;99.90;;;;;;5132556;27;20031;-66
2023/09/06 01:02:51;;;;;;;0.10;0.10;;;17.00;99.90;;;;;;5127745;27;20138;-66
2023/09/06 01:05:22;;;;;;;0.30;0.20;;;17.00;99.90;;;;;;5110602;27;20122;-66
2023/09/06 01:07:53;;;;;;;0.55;0.20;;;17.00;99.90;;;;;;5131275;27;20126;-66
2023/09/06 01:10:19;;;;;;;0.85;0.10;;;17.00;99.90;;;;;;5113161;27;20046;-66
2023/09/06 01:12:44;;;;;;;0.30;0.10;;;17.10;99.90;;;;;;5131725;27;20031;-67
2023/09/06 01:15:11;;;;;;;0.20;0.10;;;17.00;99.90;;;;;;5113364;27;20479;-66
2023/09/06 01:17:39;;;;;;;0.10;0.10;;;17.00;99.90;;;;;;5113489;27;20039;-66
2023/09/06 01:20:17;;;;;;;0.82;0.35;;;17.10;99.90;;;;;;5128966;27;20092;-65
2023/09/06 01:22:51;;;;;;;0.30;0.13;;;17.00;99.90;;;;;;5129842;27;20081;-66
2023/09/06 01:25:17;;;;;;;;;;;17.00;99.90;;;;;;5132256;27;20035;-66
2023/09/06 01:27:44;;;;;;;0.32;0.10;;;17.00;99.90;;;;;;5112401;27;20443;-66
2023/09/06 01:30:10;;;;;;;0.20;0.17;;;17.00;99.90;;;;;;5129318;27;20166;-67
2023/09/06 01:32:36;;;;;;;0.20;0.10;;;17.00;99.90;;;;;;5131241;27;20045;-65
2023/09/06 01:35:03;;;;;;;0.77;0.15;;;17.00;99.90;;;;;;5131036;27;20382;-66
2023/09/06 01:37:30;;;;;;;0.10;0.00;;;17.00;99.90;;;;;;5128297;27;20085;-67
2023/09/06 01:39:55;;;;;;;0.30;0.15;;;17.00;99.90;;;;;;5110442;27;20051;-66
2023/09/06 01:42:22;;;;;;;0.40;0.13;;;17.00;99.90;;;;;;5111174;27;20039;-67
2023/09/06 01:44:48;;;;;;;0.60;0.20;;;17.00;99.90;;;;;;5126144;27;20031;-67
2023/09/06 01:47:14;;;;;;;0.30;0.10;;;16.90;99.90;;;;;;5131317;27;20035;-67
2023/09/06 01:49:40;;;;;;;0.40;0.10;;;16.90;99.90;;;;;;5109905;27;20035;-67
2023/09/06 01:52:05;;;;;;;1.10;0.20;;;16.90;99.90;;;;;;5110023;27;20515;-68
2023/09/06 01:54:31;;;;;;;0.17;0.05;;;16.90;99.90;;;;;;5129853;27;20031;-67
2023/09/06 01:56:57;;;;;;;0.60;0.20;;;16.90;99.90;;;;;;5111975;27;20070;-67
2023/09/06 01:59:23;;;;;;;0.30;0.10;;;16.90;99.90;;;;;;5129855;27;20035;-68
2023/09/06 02:01:54;;;;;;;0.25;0.10;;;16.90;99.90;;;;;;5127495;27;20049;-67
2023/09/06 02:04:20;;;;;;;0.38;0.20;;;16.90;99.90;;;;;;5130391;27;20041;-67
2023/09/06 02:06:46;;;;;;;0.20;0.10;;;16.90;99.90;;;;;;5128459;27;20031;-67
2023/09/06 02:09:12;;;;;;;0.40;0.20;;;16.90;99.90;;;;;;5130943;27;20042;-67
2023/09/06 02:11:37;;;;;;;0.38;0.20;;;16.90;99.90;;;;;;5111285;27;20114;-67
2023/09/06 02:14:03;;;;;;;0.47;0.17;;;16.90;99.90;;;;;;5109563;27;20074;-67
2023/09/06 02:16:30;;;;;;;0.15;0.10;;;16.90;99.90;;;;;;5092991;27;20039;-67
2023/09/06 02:18:55;;;;;;;0.73;0.30;;;16.90;99.90;;;;;;5129403;27;20043;-67
2023/09/06 02:21:21;;;;;;;0.43;0.20;;;16.90;99.90;;;;;;5109032;27;20300;-67
2023/09/06 02:23:47;;;;;;;0.52;0.20;;;16.90;99.90;;;;;;5112058;27;20035;-67
2023/09/06 02:26:12;;;;;;;0.32;0.10;;;16.90;99.90;;;;;;5111403;27;20091;-67
2023/09/06 02:28:38;;;;;;;0.45;0.20;;;17.00;99.90;;;;;;5111130;27;20069;-67
2023/09/06 02:31:04;;;;;;;0.20;0.13;;;16.90;99.90;;;;;;5111184;27;20559;-67
2023/09/06 02:33:30;;;;;;;0.43;0.20;;;16.90;99.90;;;;;;5110200;27;20054;-67
2023/09/06 02:35:55;;;;;;;0.57;0.20;;;16.90;99.90;;;;;;5127919;27;20071;-67
2023/09/06 02:38:21;;;;;;;0.30;0.10;;;16.90;99.90;;;;;;5109752;27;20542;-65
2023/09/06 02:40:47;;;;;;;0.20;0.10;;;16.90;99.90;;;;;;5125718;27;20118;-67
2023/09/06 02:43:13;;;;;;;0.80;0.20;;;16.80;99.90;;;;;;5110760;27;20051;-67
2023/09/06 02:45:39;;;;;;;0.05;0.05;;;16.80;99.90;;;;;;5129857;27;20043;-66
2023/09/06 02:48:07;;;;;;;0.52;0.20;;;16.80;99.90;;;;;;5108480;27;20402;-67
2023/09/06 02:50:34;;;;;;;0.30;0.25;;;16.70;99.90;;;;;;5094263;27;20497;-67
2023/09/06 02:53:03;;;;;;;0.60;0.20;;;16.70;99.90;;;;;;5128819;27;20476;-67
2023/09/06 02:55:33;;;;;;;0.35;0.20;;;16.70;99.90;;;;;;5130279;27;20426;-67
2023/09/06 02:57:59;;;;;;;0.75;0.20;;;16.70;99.90;;;;;;5089248;28;20039;-67
2023/09/06 03:00:25;;;;;;;0.70;0.30;;;16.70;99.90;;;;;;5128820;27;20073;-67
2023/09/06 03:02:59;;;;;;;0.45;0.17;;;16.70;99.90;;;;;;5108826;27;20058;-67
2023/09/06 03:05:26;;;;;;;0.38;0.20;;;16.70;99.90;;;;;;5127782;27;20035;-68
2023/09/06 03:07:53;;;;;;;0.63;0.20;;;16.70;99.90;;;;;;5128958;27;20058;-66
2023/09/06 03:10:22;;;;;;;0.50;0.20;;;16.70;99.90;;;;;;5107726;28;20111;-67
2023/09/06 03:12:56;;;;;;;0.63;0.32;;;16.70;99.90;;;;;;5110106;28;20027;-66
2023/09/06 03:15:28;;;;;;;0.40;0.20;;;16.60;99.90;;;;;;5108818;28;20062;-66
2023/09/06 03:17:58;;;;;;;0.10;0.10;;;16.60;99.90;;;;;;5108826;28;20043;-67
2023/09/06 03:20:34;;;;;;;0.20;0.20;;;16.60;99.90;;;;;;5109461;28;20055;-66
2023/09/06 03:23:17;;;;;;;0.25;0.10;;;16.60;99.90;;;;;;5110066;28;20517;-66
2023/09/06 03:25:47;;;;;;;0.28;0.10;;;16.60;99.90;;;;;;5128493;28;20039;-67
2023/09/06 03:28:14;;;;;;;0.57;0.17;;;16.50;99.90;;;;;;5127663;28;20471;-66
2023/09/06 03:30:41;;;;;;;0.28;0.13;;;16.50;99.90;;;;;;5110668;28;20035;-66
2023/09/06 03:33:06;;;;;;;0.60;0.22;;;16.50;99.90;;;;;;5128745;28;20496;-66
2023/09/06 03:35:33;;;;;;;0.43;0.20;;;16.50;99.90;;;;;;5110338;28;20335;-66
2023/09/06 03:37:59;;;;;;;0.40;0.13;;;16.40;99.90;;;;;;5110396;28;20736;-67
2023/09/06 03:40:25;;;;;;;0.32;0.20;;;16.40;99.90;;;;;;5127976;28;20027;-66
2023/09/06 03:42:55;;;;;;;0.15;0.10;;;16.40;99.90;;;;;;5110974;28;20052;-66
2023/09/06 03:45:24;;;;;;;0.75;0.22;;;16.30;99.90;;;;;;5109571;28;20104;-66
2023/09/06 03:47:54;;;;;;;0.38;0.17;;;16.30;99.90;;;;;;5110961;28;20463;-66
2023/09/06 03:50:26;;;;;;;0.50;0.22;;;16.30;99.90;;;;;;5107720;28;20039;-66
2023/09/06 03:52:51;;;;;;;0.50;0.17;;;16.30;99.90;;;;;;5109436;28;20134;-67
2023/09/06 03:55:17;;;;;;;0.10;0.03;;;16.20;99.90;;;;;;5110668;28;20047;-66
2023/09/06 03:57:44;;;;;;;0.90;0.20;;;16.20;99.90;;;;;;5110739;27;20043;-66
2023/09/06 04:00:24;;;;;;;0.17;0.10;;;16.20;99.90;;;;;;5132631;27;20035;-66
2023/09/06 04:02:53;;;;;;;0.15;0.10;;;16.10;99.90;;;;;;5112087;27;20114;-68
2023/09/06 04:05:23;;;;;;;0.55;0.20;;;16.10;99.90;;;;;;5131846;27;20047;-66
2023/09/06 04:07:53;;;;;;;0.32;0.10;;;16.00;99.90;;;;;;5133025;27;20027;-66
2023/09/06 04:10:21;;;;;;;0.80;0.40;;;16.10;99.90;;;;;;5114195;27;20085;-67
2023/09/06 04:12:50;;;;;;;0.55;0.20;;;16.00;99.90;;;;;;5133019;27;20062;-66
2023/09/06 04:15:25;;;;;;;1.50;0.30;;;16.00;99.90;;;;;;5113221;27;20055;-67
2023/09/06 04:17:57;;;;;;;0.38;0.20;;;16.00;99.90;;;;;;5133059;27;20039;-67
2023/09/06 04:20:27;;;;;;;0.85;0.30;;;16.00;99.90;;;;;;5130706;27;20042;-66
2023/09/06 04:22:54;;;;;;;0.45;0.30;;;16.00;99.90;;;;;;5114589;27;20039;-66
2023/09/06 04:25:22;;;;;;;0.85;0.22;;;16.00;99.90;;;;;;5133286;27;20391;-66
2023/09/06 04:27:54;;;;;;;0.75;0.10;;;15.90;99.90;;;;;;5130599;27;20474;-66
2023/09/06 04:30:25;;;;;;;1.00;0.32;;;16.00;99.90;;;;;;5113872;27;20039;-66
2023/09/06 04:32:51;;;;;;;0.10;0.10;;;15.90;99.90;;;;;;5114040;27;20095;-66
2023/09/06 04:35:17;;;;;;;0.15;0.15;;;15.90;99.90;;;;;;5131666;27;20113;-66
2023/09/06 04:37:44;;;;;;;0.38;0.20;;;15.90;99.90;;;;;;5131206;27;20386;-66
2023/09/06 04:40:13;;;;;;;0.10;0.05;;;15.80;99.90;;;;;;5113858;27;20167;-66
2023/09/06 04:42:42;;;;;;;0.28;0.20;;;15.80;99.90;;;;;;5132722;27;20062;-66
2023/09/06 04:45:10;;;;;;;0.63;0.30;;;15.80;99.90;;;;;;5114211;27;20383;-67
2023/09/06 04:47:37;;;;;;;0.10;0.10;;;15.80;99.90;;;;;;5132617;27;20102;-67
2023/09/06 04:50:04;;;;;;;0.47;0.30;;;15.80;99.90;;;;;;5109471;27;20474;-66
2023/09/06 04:52:35;;;;;;;0.25;0.10;;;15.70;99.90;;;;;;5096201;27;20079;-66
2023/09/06 04:55:01;;;;;;;0.10;0.10;;;15.70;99.90;;;;;;5113762;27;20509;-67
2023/09/06 04:57:27;;;;;;;0.73;0.20;;;15.70;99.90;;;;;;5112993;27;20455;-66
2023/09/06 04:59:53;;;;;;;0.20;0.10;;;15.60;99.90;;;;;;5113510;27;20070;-67
2023/09/06 05:02:19;;;;;;;3.13;0.25;;;15.70;99.90;;;;;;5114104;27;20509;-66
2023/09/06 05:04:45;;;;;;;0.45;0.20;;;15.60;99.90;;;;;;5108825;27;20572;-67
2023/09/06 05:07:11;;;;;;;0.30;0.25;;;15.60;99.90;;;;;;5131775;27;20039;-66
2023/09/06 05:09:37;;;;;;;2.90;0.40;;;15.60;99.90;;;;;;5131509;27;20035;-66
2023/09/06 05:12:03;;;;;;;0.40;0.20;;;15.60;99.90;;;;;;5112315;27;20039;-68
2023/09/06 05:14:29;;;;;;;0.20;0.10;;;15.60;99.90;;;;;;5130879;27;20127;-66
2023/09/06 05:16:55;;;;;;;0.90;0.38;;;15.60;99.90;;;;;;5131462;27;20046;-66
2023/09/06 05:19:27;;;;;;;0.65;0.30;;;15.60;99.90;;;;;;5111946;27;20043;-66
2023/09/06 05:21:55;;;;;;;0.90;0.20;;;15.60;99.90;;;;;;5129439;27;20027;-66
2023/09/06 05:24:21;;;;;;;0.43;0.20;;;15.60;99.90;;;;;;5130617;27;20138;-65
2023/09/06 05:26:47;;;;;;;0.45;0.30;;;15.60;99.90;;;;;;5129800;27;20522;-66
2023/09/06 05:29:15;;;;;;;0.52;0.20;;;15.70;99.90;;;;;;5112266;27;20356;-66
2023/09/06 05:31:40;;;;;;;0.75;0.20;;;15.70;99.90;;;;;;5113399;27;20417;-66
2023/09/06 05:34:06;;;;;;;0.95;0.30;;;15.70;99.90;;;;;;5131357;27;20184;-66
2023/09/06 05:36:32;;;;;;;0.65;0.30;;;15.80;99.90;;;;;;5130298;27;20533;-67
2023/09/06 05:38:57;;;;;;;0.73;0.25;;;15.80;99.90;;;;;;5130469;27;20498;-66
2023/09/06 05:41:23;;;;;;;0.20;0.10;;;15.90;99.90;;;;;;5130267;27;20050;-67
2023/09/06 05:43:49;;;;;;;0.20;0.20;;;16.00;99.90;;;;;;5131116;27;20171;-66
2023/09/06 05:46:14;;;;;;;0.40;0.17;;;16.00;99.90;;;;;;5111395;27;20126;-66
2023/09/06 05:48:40;;;;;;;0.30;0.10;;;16.10;99.90;;;;;;5109856;27;20484;-66
2023/09/06 05:51:06;;;;;;;0.95;0.20;;;16.20;99.90;;;;;;5130255;27;20039;-67
2023/09/06 05:53:31;;;;;;;0.98;0.30;;;16.30;99.90;;;;;;5112422;27;20547;-68
2023/09/06 05:55:57;;;;;;;0.30;0.20;;;16.40;99.90;;;;;;5109773;27;20130;-67
2023/09/06 05:58:26;;;;;;;0.13;0.10;;;16.50;99.90;;;;;;5111968;27;20092;-67
2023/09/06 06:00:53;;;;;;;0.57;0.30;;;16.70;99.90;;;;;;5130473;27;20078;-67
2023/09/06 06:03:19;;;;;;;0.55;0.17;;;16.80;99.90;;;;;;5129233;27;20540;-67
2023/09/06 06:05:45;;;;;;;0.30;0.15;;;16.80;99.90;;;;;;5126692;27;20583;-67
2023/09/06 06:08:11;;;;;;;0.68;0.30;;;17.00;99.90;;;;;;5112704;27;20039;-67
2023/09/06 06:10:37;;;;;;;0.82;0.30;;;17.10;99.90;;;;;;5083342;27;20126;-67
2023/09/06 06:13:04;;;;;;;0.32;0.20;;;17.20;99.90;;;;;;5129853;27;20559;-68
2023/09/06 06:15:31;;;;;;;0.35;0.10;;;17.30;99.90;;;;;;5110693;27;20051;-67
2023/09/06 06:17:56;;;;;;;0.60;0.40;;;17.40;99.90;;;;;;5111843;27;20031;-68
2023/09/06 06:20:22;;;;;;;1.08;0.20;;;17.50;99.90;;;;;;5128549;27;20035;-67
2023/09/06 06:22:48;;;;;;;0.45;0.17;;;17.60;99.90;;;;;;5128203;27;20390;-67
2023/09/06 06:25:13;;;;;;;1.63;0.22;;;17.70;99.90;;;;;;5093112;27;20047;-68
2023/09/06 06:27:39;;;;;;;2.55;0.30;;;17.80;99.90;;;;;;5128679;27;20045;-67
2023/09/06 06:30:06;;;;;;;0.90;0.32;;;17.90;99.90;;;;;;5130586;27;20342;-67
2023/09/06 06:32:33;;;;;;;1.27;0.30;;;18.00;99.90;;;;;;5109562;27;20066;-67
2023/09/06 06:35:01;;;;;;;0.20;0.20;;;18.20;99.90;;;;;;5110909;27;20075;-67
2023/09/06 06:37:28;;;;;;;1.00;0.32;;;18.30;99.90;;;;;;5128352;27;20152;-68
2023/09/06 06:39:54;;;;;;;0.30;0.10;;;18.40;99.90;;;;;;5130291;27;20502;-68
2023/09/06 06:42:22;;;;;;;0.57;0.22;;;18.50;99.90;;;;;;5129959;27;20062;-68
2023/09/06 06:44:48;;;;;;;0.10;0.00;;;18.60;99.90;;;;;;5127601;27;20414;-68
2023/09/06 06:47:14;;;;;;;1.45;0.32;;;18.70;99.90;;;;;;5107998;27;20039;-67
2023/09/06 06:49:39;;;;;;;0.60;0.22;;;18.80;99.90;;;;;;5111159;27;20074;-69
2023/09/06 06:52:05;;;;;;;0.50;0.22;;;18.90;99.90;;;;;;5109560;27;20046;-67
2023/09/06 06:54:31;;;;;;;0.40;0.28;;;19.00;99.90;;;;;;5129784;27;20043;-67
2023/09/06 06:56:57;;;;;;;0.20;0.13;;;19.20;99.90;;;;;;5128484;27;20054;-67
2023/09/06 06:59:22;;;;;;;0.35;0.20;;;19.30;99.90;;;;;;5127253;27;20043;-67
2023/09/06 07:01:48;;;;;;;0.60;0.20;;;19.40;99.90;;;;;;5129015;27;20039;-67
2023/09/06 07:04:14;;;;;;;0.40;0.17;;;19.50;99.90;;;;;;5110030;27;20075;-68
2023/09/06 07:06:40;;;;;;;0.30;0.03;;;19.70;99.90;;;;;;5108649;27;20520;-67
2023/09/06 07:09:06;;;;;;;1.13;0.20;;;19.90;99.90;;;;;;5129990;27;20506;-68
2023/09/06 07:11:32;;;;;;;0.43;0.20;;;20.00;99.90;;;;;;5110134;28;20071;-67
2023/09/06 07:13:58;;;;;;;0.15;0.08;;;20.20;99.90;;;;;;5108284;28;20095;-67
2023/09/06 07:16:24;;;;;;;0.20;0.10;;;20.30;99.90;;;;;;5124699;28;20439;-67
2023/09/06 07:18:51;;;;;;;0.25;0.13;;;20.40;99.90;;;;;;5128125;28;20042;-68
2023/09/06 07:21:18;;;;;;;0.32;0.13;;;20.60;99.90;;;;;;5127615;28;20039;-68
2023/09/06 07:23:44;;;;;;;0.50;0.30;;;20.70;99.90;;;;;;5128452;28;20035;-68
2023/09/06 07:26:10;;;;;;;0.50;0.30;;;20.90;99.90;;;;;;5127949;28;20039;-68
2023/09/06 07:28:44;;;;;;;0.00;0.00;;;21.00;99.90;;;;;;5107414;28;20038;-68
2023/09/06 07:31:10;;;;;;;0.35;0.00;;;21.10;99.90;;;;;;5125441;28;20034;-67
2023/09/06 07:33:36;;;;;;;0.20;0.10;;;21.30;99.90;;;;;;5114095;27;20039;-68
2023/09/06 07:36:02;;;;;;;0.75;0.20;;;21.40;99.90;;;;;;5133157;27;20487;-68
2023/09/06 07:38:28;;;;;;;0.35;0.20;;;21.60;99.90;;;;;;5113470;27;20047;-68
2023/09/06 07:41:01;;;;;;;0.50;0.10;;;21.70;99.90;;;;;;5115393;27;20070;-68
2023/09/06 07:43:28;;;;;;;0.45;0.10;;;21.90;99.90;;;;;;5129613;27;20051;-68
2023/09/06 07:46:06;;;;;;;0.32;0.17;;;22.10;99.90;;;;;;5115367;27;20518;-68
2023/09/06 07:48:32;;;;;;;0.20;0.20;;;22.30;99.90;;;;;;5111407;27;20118;-68
2023/09/06 07:50:59;;;;;;;0.13;0.03;;;22.40;99.90;;;;;;5114696;27;20566;-68
2023/09/06 07:53:26;;;;;;;0.35;0.10;;;22.60;99.90;;;;;;5114661;27;20067;-68
2023/09/06 07:55:52;;;;;;;0.40;0.20;;;22.80;99.90;;;;;;5131868;27;20035;-68
2023/09/06 07:58:19;;;;;;;0.35;0.10;;;23.00;99.90;;;;;;5132707;27;20043;-68
2023/09/06 08:00:45;;;;;;;0.68;0.20;;;23.30;99.90;;;;;;5133081;27;20060;-69
2023/09/06 08:03:11;;;;;;;0.95;0.00;;;23.60;99.90;;;;;;5113253;27;20047;-68
2023/09/06 08:05:37;;;;;;;0.68;0.20;;;23.90;99.90;;;;;;5113001;27;20457;-68
2023/09/06 08:08:09;;;;;;;0.45;0.10;;;24.20;99.90;;;;;;5114957;27;20047;-68
2023/09/06 08:10:35;;;;;;;0.80;0.25;;;24.90;99.90;;;;;;5111880;27;20039;-69
2023/09/06 08:13:03;;;;;;;0.52;0.10;;;26.10;99.90;;;;;;5131337;27;20034;-68
2023/09/06 08:15:30;;;;;;;0.20;0.10;;;26.90;99.90;;;;;;5113922;27;20051;-68
2023/09/06 08:17:56;;;;;;;0.22;0.10;;;27.70;99.90;;;;;;5114202;27;20061;-68
2023/09/06 08:20:22;;;;;;;0.20;0.00;;;28.30;99.90;;;;;;5131579;27;20042;-68
2023/09/06 08:22:48;;;;;;;0.40;0.10;;;28.90;99.90;;;;;;5132936;27;20473;-68
2023/09/06 08:25:15;;;;;;;0.10;0.00;;;29.40;99.90;;;;;;5132448;27;20049;-68
2023/09/06 08:27:41;;;;;;;0.63;0.10;;;29.80;99.90;;;;;;5132894;27;20089;-69
2023/09/06 08:30:11;;;;;;;0.00;0.00;;;30.00;99.90;;;;;;5131369;27;20051;-68
2023/09/06 08:32:39;;;;;;;0.65;0.20;;;30.30;99.90;;;;;;5114579;27;20070;-69
2023/09/06 08:35:06;;;;;;;0.20;0.10;;;30.50;99.90;;;;;;5129662;27;20058;-69
2023/09/06 08:37:33;;;;;;;0.10;0.10;;;30.50;99.90;;;;;;5128938;27;20081;-69
2023/09/06 08:39:59;;;;;;;0.52;0.15;;;30.70;99.90;;;;;;5113859;27;20101;-69
2023/09/06 08:42:27;;;;;;;1.00;0.13;;;30.90;94.70;;;;;;5121549;27;20108;-69
2023/09/06 08:44:54;;;;;;;0.32;0.10;;;31.30;99.10;;;;;;5110591;28;20471;-69
2023/09/06 08:47:21;;;;;;;0.20;0.10;;;31.40;93.50;;;;;;5110747;28;20137;-68
2023/09/06 08:49:47;;;;;;;0.25;0.00;;;31.50;94.90;;;;;;5111351;28;20039;-68
2023/09/06 08:52:17;;;;;;;0.00;0.00;;;31.50;90.10;;;;;;5111171;28;20051;-68
2023/09/06 08:54:46;;;;;;;0.30;0.10;;;31.70;93.70;;;;;;5111133;28;20547;-68
2023/09/06 08:57:13;;;;;;;0.50;0.10;;;31.80;94.30;;;;;;5108963;28;20043;-68
2023/09/06 08:59:40;;;;;;;0.77;0.08;;;31.80;91.90;;;;;;5105532;28;20048;-68
2023/09/06 09:02:10;;;;;;;5.05;0.38;;;31.90;98.80;;;;;;5111275;28;20040;-68
2023/09/06 09:04:42;;;;;;;0.25;0.17;;;32.00;87.80;;;;;;5107514;28;20743;-68
2023/09/06 09:07:11;;;;;;;0.10;0.00;;;32.20;85.80;;;;;;5106845;28;20510;-68
2023/09/06 09:09:57;;;;;;;0.00;0.00;;;32.40;91.40;;;;;;5109880;28;20031;-68
2023/09/06 09:12:24;;;;;;;0.80;0.20;;;32.60;90.10;;;;;;5107803;28;20375;-68
2023/09/06 09:14:51;;;;;;;0.63;0.10;;;32.60;83.50;;;;;;5109705;28;20035;-68
2023/09/06 09:17:20;;;;;;;0.73;0.13;;;32.50;85.80;;;;;;5109859;28;20418;-68
2023/09/06 09:19:50;;;;;;;0.17;0.10;;;32.70;85.00;;;;;;5122453;27;20036;-68
2023/09/06 09:22:28;;;;;;;0.45;0.00;;;32.90;82.30;;;;;;5105815;28;20089;-67
2023/09/06 09:25:04;;;;;;;0.45;0.10;;;33.20;80.30;;;;;;5106833;28;20039;-67
2023/09/06 09:27:36;;;;;;;0.20;0.10;;;33.20;73.30;;;;;;5107844;28;20040;-69
2023/09/06 09:30:07;;;;;;;0.10;0.08;;;33.30;82.80;;;;;;5110200;28;20035;-69
2023/09/06 09:32:33;;;;;;;0.03;0.00;;;33.50;79.60;;;;;;5110395;28;20044;-68
2023/09/06 09:34:58;;;;;;;0.20;0.00;;;33.60;79.40;;;;;;5109583;28;20058;-69
2023/09/06 09:37:29;;;;;;;0.17;0.10;;;33.50;72.60;;;;;;5109639;28;20113;-69
2023/09/06 09:39:56;;;;;;;0.75;0.10;;;33.50;77.00;;;;;;5108269;28;20055;-69
2023/09/06 09:42:22;;;;;;;0.55;0.17;;;33.50;74.40;;;;;;5112533;27;20043;-69
2023/09/06 09:45:02;;;;;;;0.38;0.10;;;33.50;77.70;;;;;;5111732;27;20069;-69
2023/09/06 09:47:32;;;;;;;0.10;0.00;;;33.40;74.10;;;;;;5127998;27;20033;-69
2023/09/06 09:49:59;;;;;;;0.20;0.10;;;33.50;74.10;;;;;;5130686;27;20043;-70
2023/09/06 09:52:27;;;;;;;0.15;0.00;;;33.60;77.60;;;;;;5128286;27;20437;-69
2023/09/06 09:54:55;;;;;;;0.80;0.00;;;33.60;74.10;;;;;;5111840;27;20039;-69
2023/09/06 09:57:23;;;;;;;0.10;0.05;;;33.60;68.00;;;;;;5129175;27;20410;-69
2023/09/06 09:59:50;;;;;;;0.10;0.10;;;33.70;75.20;;;;;;5129784;27;20340;-69
2023/09/06 10:02:16;;;;;;;0.20;0.00;;;33.60;69.60;;;;;;5111843;27;20079;-69
2023/09/06 10:04:43;;;;;;;0.32;0.10;;;33.50;73.40;;;;;;5110406;27;20122;-69
2023/09/06 10:07:11;;;;;;;0.20;0.05;;;33.50;74.20;;;;;;5129756;27;20141;-69
2023/09/06 10:09:42;;;;;;;0.38;0.08;;;33.60;72.00;;;;;;5130830;27;20124;-69
2023/09/06 10:12:09;;;;;;;0.00;0.00;;;33.80;66.20;;;;;;5107833;27;20043;-68
2023/09/06 10:14:40;;;;;;;0.10;0.00;;;34.00;65.50;;;;;;5112400;27;20046;-69
2023/09/06 10:17:07;;;;;;;0.22;0.10;;;34.00;70.30;;;;;;5130223;27;20083;-69
2023/09/06 10:19:37;;;;;;;0.30;0.10;;;34.10;69.90;;;;;;5130028;27;20501;-69
2023/09/06 10:22:07;;;;;;;0.10;0.10;;;33.90;67.40;;;;;;5109851;27;20188;-68
2023/09/06 10:24:35;;;;;;;0.80;0.10;;;33.60;66.20;;;;;;5129635;27;20470;-68
2023/09/06 10:27:02;;;;;;;0.52;0.15;;;33.20;62.60;;;;;;5128567;27;20035;-68
2023/09/06 10:29:30;;;;;;;0.13;0.10;;;33.10;63.90;;;;;;5129055;27;20032;-69
2023/09/06 10:32:04;;;;;;;0.40;0.08;;;33.10;66.20;;;;;;5106658;27;20060;-68
2023/09/06 10:34:33;;;;;;;0.20;0.08;;;33.00;63.40;;;;;;5128890;27;20035;-68
2023/09/06 10:37:02;;;;;;;0.32;0.00;;;33.10;68.10;;;;;;5128960;27;20067;-68
2023/09/06 10:39:30;;;;;;;0.08;0.00;;;33.20;66.50;;;;;;5128197;27;20039;-68
2023/09/06 10:42:11;;;;;;;0.10;0.00;;;33.40;68.40;;;;;;5127295;27;20057;-68
2023/09/06 10:44:55;;;;;;;0.20;0.10;;;33.40;63.40;;;;;;5129554;27;20561;-69
2023/09/06 10:47:28;;;;;;;0.13;0.00;;;33.30;62.30;;;;;;5109360;27;20394;-68
2023/09/06 10:50:16;;;;;;;0.20;0.10;;;33.20;65.20;;;;;;5128307;27;20035;-68
2023/09/06 10:52:51;;;;;;;0.15;0.13;;;33.20;61.50;;;;;;5127322;27;20066;-68
2023/09/06 10:55:25;;;;;;;0.47;0.10;;;33.20;65.70;;;;;;5092647;27;20051;-68
2023/09/06 10:58:02;;;;;;;0.08;0.00;;;33.20;63.60;;;;;;5109601;27;20112;-69
2023/09/06 11:00:34;;;;;;;0.03;0.00;;;33.40;65.60;;;;;;5127331;27;20046;-69
2023/09/06 11:03:13;;;;;;;0.15;0.10;;;33.60;65.70;;;;;;5110329;28;20039;-68
2023/09/06 11:06:04;;;;;;;0.00;0.00;;;33.70;64.30;;;;;;5123103;27;20082;-69
2023/09/06 11:08:32;;;;;;;0.28;0.10;;;33.90;61.40;;;;;;5125739;27;20050;-69
2023/09/06 11:11:07;;;;;;;0.10;0.00;;;34.00;61.20;;;;;;5126132;27;20241;-69
2023/09/06 11:13:34;;;;;;;0.00;0.00;;;34.00;63.00;;;;;;5127161;28;20091;-69
2023/09/06 11:16:01;;;;;;;0.13;0.00;;;34.00;60.00;;;;;;5127298;28;20031;-69
2023/09/06 11:18:27;;;;;;;0.10;0.10;;;34.10;63.90;;;;;;5109530;28;20155;-69
2023/09/06 11:20:53;;;;;;;0.50;0.03;;;34.40;62.20;;;;;;5109960;28;20043;-68
2023/09/06 11:23:19;;;;;;;0.10;0.00;;;34.60;60.30;;;;;;5130122;28;20046;-68
2023/09/06 11:25:45;;;;;;;0.10;0.00;;;34.70;62.40;;;;;;5129976;28;20372;-69
2023/09/06 11:28:19;;;;;;;0.55;0.03;;;35.10;62.70;;;;;;5129808;28;20424;-69
2023/09/06 11:30:49;;;;;;;0.10;0.00;;;35.20;59.10;;;;;;5109868;28;20055;-69
2023/09/06 11:33:16;;;;;;;0.47;0.10;;;35.40;57.40;;;;;;5128968;28;20150;-69
2023/09/06 11:35:48;;;;;;;0.40;0.10;;;35.60;56.30;;;;;;5109809;28;20099;-69
2023/09/06 11:38:17;;;;;;;0.00;0.00;;;35.50;56.20;;;;;;5127068;28;20132;-69
2023/09/06 11:40:44;;;;;;;0.38;0.05;;;35.50;57.50;;;;;;5110175;28;20042;-69
2023/09/06 11:43:11;;;;;;;0.20;0.00;;;35.70;58.70;;;;;;5128883;28;20468;-69
2023/09/06 11:45:40;;;;;;;0.10;0.00;;;35.60;54.80;;;;;;5128678;28;20085;-69
2023/09/06 11:48:10;;;;;;;0.40;0.00;;;35.50;56.50;;;;;;5108998;28;20039;-69
2023/09/06 11:50:40;;;;;;;0.10;0.00;;;35.40;53.60;;;;;;5127391;28;20051;-69
2023/09/06 11:53:09;;;;;;;0.00;0.00;;;35.60;53.80;;;;;;5128117;28;20082;-69
2023/09/06 11:55:45;;;;;;;0.17;0.17;;;35.80;54.90;;;;;;5109598;28;20050;-69
2023/09/06 11:58:17;;;;;;;0.43;0.10;;;36.20;54.10;;;;;;5128875;28;20051;-68
2023/09/06 12:00:47;;;;;;;0.50;0.10;;;36.30;51.30;;;;;;5127211;28;20086;-69
2023/09/06 12:03:15;;;;;;;0.20;0.10;;;36.30;51.90;;;;;;5128498;28;20114;-69
2023/09/06 12:05:47;;;;;;;0.43;0.10;;;36.20;50.70;;;;;;5126662;28;20042;-69
2023/09/06 12:08:22;;;;;;;0.20;0.10;;;36.20;52.10;;;;;;5128000;28;20505;-69
2023/09/06 12:11:05;;;;;;;0.28;0.13;;;36.20;52.40;;;;;;5108221;28;20062;-69
2023/09/06 12:13:34;;;;;;;0.13;0.03;;;36.40;50.50;;;;;;5125611;28;20089;-68
2023/09/06 12:16:01;;;;;;;0.70;0.00;;;36.40;52.20;;;;;;5125744;28;20030;-68
2023/09/06 12:18:28;;;;;;;0.45;0.00;;;36.60;53.60;;;;;;5110771;27;20085;-67
2023/09/06 12:20:57;;;;;;;0.40;0.10;;;36.90;51.80;;;;;;5113750;27;20035;-68
2023/09/06 12:23:28;;;;;;;0.13;0.00;;;36.90;51.00;;;;;;5129205;27;20093;-67
2023/09/06 12:25:55;;;;;;;0.35;0.00;;;36.90;51.20;;;;;;5111746;27;20038;-71
2023/09/06 12:28:21;;;;;;;0.10;0.00;;;37.00;52.00;;;;;;5136431;27;20486;-71
2023/09/06 12:30:53;;;;;;;0.35;0.00;;;37.30;51.50;;;;;;5113019;27;20035;-70
2023/09/06 12:33:19;;;;;;;0.10;0.00;;;37.40;50.30;;;;;;5113401;27;20605;-70
2023/09/06 12:35:45;;;;;;;0.10;0.08;;;37.60;51.80;;;;;;5113116;27;20042;-70
2023/09/06 12:38:11;;;;;;;0.10;0.00;;;37.80;51.50;;;;;;5108946;27;20490;-70
2023/09/06 12:40:37;;;;;;;0.15;0.08;;;37.90;50.30;;;;;;5094252;27;20039;-70
2023/09/06 12:43:05;;;;;;;0.60;0.10;;;38.10;50.90;;;;;;5112412;27;20115;-70
2023/09/06 12:45:32;;;;;;;0.05;0.00;;;38.50;52.40;;;;;;5093180;27;20518;-71
2023/09/06 12:48:01;;;;;;;0.00;0.00;;;38.60;50.30;;;;;;5110905;27;20458;-70
2023/09/06 12:50:27;;;;;;;0.30;0.00;;;38.60;50.50;;;;;;5110365;27;20059;-70
2023/09/06 12:52:54;;;;;;;0.57;0.10;;;38.50;49.60;;;;;;5133711;27;20031;-73